createdAt,value
2022-12-16T00:01:40.407Z,97142.91
2022-12-16T00:04:08.075Z,97128.48
2022-12-16T00:06:36.364Z,97116.22
2022-12-16T00:09:04.032Z,97126.39
2022-12-16T00:11:31.986Z,97127.19
2022-12-16T00:13:59.977Z,97128.01
2022-12-16T00:16:28.273Z,97132.02
2022-12-16T00:18:55.948Z,97132.52
2022-12-16T00:21:25.284Z,97137.06
2022-12-16T00:23:52.665Z,97143.73
2022-12-16T00:26:20.358Z,97134.68
2022-12-16T00:28:48.326Z,97136.27
2022-12-16T00:31:15.934Z,97140.56
2022-12-16T00:33:43.502Z,97142.97
2022-12-16T00:36:11.135Z,97132.05
2022-12-16T00:38:38.898Z,97119.78
2022-12-16T00:41:07.616Z,97105.91
2022-12-16T00:43:36.269Z,97096.81
2022-12-16T00:46:04.308Z,97091.77
2022-12-16T00:48:32.062Z,97087.98
2022-12-16T00:50:59.805Z,97091.98
2022-12-16T00:53:27.714Z,97094.66
2022-12-16T00:56:11.254Z,97097.33
2022-12-16T00:58:38.858Z,97086.40
2022-12-16T01:01:07.132Z,97090.40
2022-12-16T01:03:35.972Z,97090.66
2022-12-16T01:06:14.015Z,97079.98
2022-12-16T01:08:47.096Z,97080.27
2022-12-16T01:11:17.483Z,97074.64
2022-12-16T01:13:46.524Z,97068.22
2022-12-16T01:16:14.890Z,97057.01
2022-12-16T01:18:42.565Z,97038.07
2022-12-16T01:21:14.142Z,97043.91
2022-12-16T01:23:42.473Z,97038.83
2022-12-16T01:26:15.146Z,97031.07
2022-12-16T01:28:42.802Z,97036.15
2022-12-16T01:31:12.017Z,97036.69
2022-12-16T01:33:40.062Z,97037.45
2022-12-16T01:36:09.193Z,97030.48
2022-12-16T01:38:37.470Z,97031.01
2022-12-16T01:41:05.903Z,97036.27
2022-12-16T01:43:37.348Z,97034.34
2022-12-16T01:46:21.036Z,97030.81
2022-12-16T01:49:03.211Z,97017.41
2022-12-16T01:51:40.686Z,97015.22
2022-12-16T01:54:15.949Z,97007.69
2022-12-16T01:56:53.085Z,97001.79
2022-12-16T01:59:24.853Z,96998.53
2022-12-16T02:01:53.415Z,96996.39
2022-12-16T02:04:21.833Z,97003.32
2022-12-16T02:06:49.883Z,97006.53
2022-12-16T02:09:21.450Z,97011.38
2022-12-16T02:12:07.079Z,97007.63
2022-12-16T02:15:20.172Z,96997.48
2022-12-16T02:18:13.954Z,97012.42
2022-12-16T02:21:08.669Z,97019.66
2022-12-16T02:24:03.221Z,97007.39
2022-12-16T02:27:24.661Z,97005.56
2022-12-16T02:30:44.424Z,97004.17
2022-12-16T02:33:37.577Z,97000.15
2022-12-16T02:36:38.773Z,96995.30
2022-12-16T02:39:24.688Z,96987.54
2022-12-16T02:42:24.286Z,96971.50
2022-12-16T02:45:14.522Z,96967.97
2022-12-16T02:47:41.950Z,96955.14
2022-12-16T02:50:30.248Z,96935.84
2022-12-16T02:53:00.081Z,96939.59
2022-12-16T02:55:50.705Z,96941.95
2022-12-16T02:58:46.613Z,96956.09
2022-12-16T03:01:29.502Z,96937.14
2022-12-16T03:04:22.030Z,96944.93
2022-12-16T03:06:53.213Z,96933.45
2022-12-16T03:09:25.962Z,96925.98
2022-12-16T03:11:56.208Z,96916.02
2022-12-16T03:14:27.662Z,96927.48
2022-12-16T03:16:56.235Z,96932.20
2022-12-16T03:19:26.185Z,96914.22
2022-12-16T03:22:13.682Z,96918.42
2022-12-16T03:24:42.660Z,96920.70
2022-12-16T03:27:18.287Z,96921.56
2022-12-16T03:30:03.040Z,96927.83
2022-12-16T03:32:40.885Z,96912.98
2022-12-16T03:35:35.240Z,96905.80
2022-12-16T03:38:06.830Z,96897.33
2022-12-16T03:40:36.049Z,96897.89
2022-12-16T03:43:06.290Z,96907.34
2022-12-16T03:45:40.535Z,96890.61
2022-12-16T03:48:14.361Z,96901.44
2022-12-16T03:50:42.689Z,96910.68
2022-12-16T03:53:13.556Z,96912.75
2022-12-16T03:55:42.103Z,96918.77
2022-12-16T03:58:13.093Z,96917.84
2022-12-16T04:00:41.252Z,96911.31
2022-12-16T04:03:09.895Z,96920.34
2022-12-16T04:05:39.063Z,96931.86
2022-12-16T04:08:07.488Z,96927.88
2022-12-16T04:10:54.254Z,96922.03
2022-12-16T04:13:43.563Z,96907.57
2022-12-16T04:16:35.656Z,96904.34
2022-12-16T04:19:22.949Z,96901.66
2022-12-16T04:22:09.565Z,96887.20
2022-12-16T04:24:37.926Z,96872.39
2022-12-16T04:27:15.289Z,96876.37
2022-12-16T04:29:39.834Z,96870.70
2022-12-16T04:32:07.518Z,96872.83
2022-12-16T04:34:35.144Z,96865.61
2022-12-16T04:37:22.400Z,96865.65
2022-12-16T04:40:08.639Z,96861.98
2022-12-16T04:42:54.634Z,96864.45
2022-12-16T04:45:40.445Z,96858.61
2022-12-16T04:48:26.457Z,96873.14
2022-12-16T04:51:12.437Z,96855.45
2022-12-16T04:53:58.690Z,96846.59
2022-12-16T04:56:44.820Z,96844.16
2022-12-16T04:59:30.725Z,96833.20
2022-12-16T05:02:17.143Z,96827.14
2022-12-16T05:04:49.374Z,96832.05
2022-12-16T05:07:38.544Z,96845.73
2022-12-16T05:10:25.470Z,96840.26
2022-12-16T05:13:14.869Z,96826.06
2022-12-16T05:16:00.864Z,96813.83
2022-12-16T05:18:47.099Z,96824.63
2022-12-16T05:21:33.408Z,96818.41
2022-12-16T05:24:19.150Z,96810.86
2022-12-16T05:27:05.476Z,96803.80
2022-12-16T05:29:51.618Z,96794.64
2022-12-16T05:32:37.428Z,96793.78
2022-12-16T05:35:24.543Z,96795.13
2022-12-16T05:38:10.920Z,96786.09
2022-12-16T05:40:57.182Z,96788.30
2022-12-16T05:43:43.835Z,96791.34
2022-12-16T05:46:30.172Z,96794.07
2022-12-16T05:49:16.502Z,96798.17
2022-12-16T05:52:02.531Z,96799.08
2022-12-16T05:54:49.255Z,96790.84
2022-12-16T05:57:35.643Z,96799.96
2022-12-16T06:00:09.336Z,96798.38
2022-12-16T06:02:58.291Z,96802.41
2022-12-16T06:05:30.703Z,96797.59
2022-12-16T06:08:16.645Z,96801.14
2022-12-16T06:11:02.960Z,96806.19
2022-12-16T06:13:49.077Z,96803.94
2022-12-16T06:16:36.312Z,96811.58
2022-12-16T06:19:22.378Z,96813.35
2022-12-16T06:22:08.261Z,96796.58
2022-12-16T06:24:55.213Z,96804.78
2022-12-16T06:27:41.179Z,96804.09
2022-12-16T06:30:29.137Z,96802.91
2022-12-16T06:33:15.539Z,96800.14
2022-12-16T06:36:01.700Z,96800.52
2022-12-16T06:38:47.857Z,96796.12
2022-12-16T06:41:34.450Z,96800.15
2022-12-16T06:44:20.973Z,96800.70
2022-12-16T06:47:07.793Z,96810.64
2022-12-16T06:49:55.464Z,96798.43
2022-12-16T06:52:41.501Z,96805.58
2022-12-16T06:55:27.318Z,96798.18
2022-12-16T06:58:10.233Z,96790.02
2022-12-16T07:00:43.019Z,96806.77
2022-12-16T07:03:34.061Z,96784.40
2022-12-16T07:06:17.320Z,96800.22
2022-12-16T07:09:03.824Z,96797.55
2022-12-16T07:11:50.629Z,96808.47
2022-12-16T07:14:37.024Z,96803.37
2022-12-16T07:17:22.801Z,96819.39
2022-12-16T07:20:09.163Z,96802.09
2022-12-16T07:23:03.744Z,96801.42
2022-12-16T07:25:42.945Z,96801.01
2022-12-16T07:28:29.020Z,96807.83
2022-12-16T07:31:14.858Z,96807.46
2022-12-16T07:34:01.170Z,96802.28
2022-12-16T07:36:47.544Z,96823.20
2022-12-16T07:39:33.748Z,96827.22
2022-12-16T07:42:19.965Z,96835.52
2022-12-16T07:45:06.125Z,96834.44
2022-12-16T07:47:52.425Z,96826.98
2022-12-16T07:50:40.248Z,96815.75
2022-12-16T07:53:31.238Z,96823.56
2022-12-16T07:56:15.735Z,96826.84
2022-12-16T07:59:01.827Z,96834.66
2022-12-16T08:01:48.305Z,96830.16
2022-12-16T08:04:34.630Z,96815.13
2022-12-16T08:07:20.850Z,96816.74
2022-12-16T08:10:07.156Z,96804.86
2022-12-16T08:12:53.198Z,96814.13
2022-12-16T08:15:39.149Z,96818.76
2022-12-16T08:18:25.743Z,96798.36
2022-12-16T08:21:07.346Z,96792.75
2022-12-16T08:23:54.810Z,96781.50
2022-12-16T08:26:30.822Z,96785.80
2022-12-16T08:32:04.868Z,96775.95
2022-12-16T08:34:50.957Z,96763.89
2022-12-16T08:37:37.069Z,96769.47
2022-12-16T08:40:39.671Z,96782.20
2022-12-16T08:43:15.514Z,96781.91
2022-12-16T08:46:01.978Z,96786.97
2022-12-16T08:48:48.332Z,96771.02
2022-12-16T08:51:34.835Z,96756.14
2022-12-16T08:54:21.033Z,96747.61
2022-12-16T08:57:07.358Z,96761.67
2022-12-16T08:59:53.505Z,96775.48
2022-12-16T09:02:40.552Z,96770.27
2022-12-16T09:05:27.217Z,96772.51
2022-12-16T09:08:19.335Z,96780.86
2022-12-16T09:11:05.527Z,96775.02
2022-12-16T09:13:51.610Z,96781.23
2022-12-16T09:16:37.340Z,96784.89
2022-12-16T09:19:23.545Z,96780.77
2022-12-16T09:22:09.606Z,96777.94
2022-12-16T09:24:56.056Z,96789.27
2022-12-16T09:27:42.209Z,96794.73
2022-12-16T09:30:29.500Z,96785.91
2022-12-16T09:33:15.431Z,96790.84
2022-12-16T09:36:01.898Z,96784.13
2022-12-16T09:38:48.042Z,96777.13
2022-12-16T09:41:45.746Z,96751.09
2022-12-16T09:44:57.280Z,96755.52
2022-12-16T09:48:09.412Z,96748.50
2022-12-16T09:50:59.331Z,96754.34
2022-12-16T09:53:49.995Z,96753.78
2022-12-16T09:56:41.446Z,96761.00
2022-12-16T09:59:35.483Z,96766.84
2022-12-16T10:02:24.237Z,96757.69
2022-12-16T10:05:10.616Z,96764.41
2022-12-16T10:08:00.731Z,96760.38
2022-12-16T10:11:00.523Z,96759.82
2022-12-16T10:14:00.997Z,96759.72
2022-12-16T10:17:00.938Z,96773.17
2022-12-16T10:20:17.099Z,96769.63
2022-12-16T10:23:17.634Z,96768.84
2022-12-16T10:26:12.071Z,96759.35
2022-12-16T10:29:05.606Z,96757.59
2022-12-16T10:31:55.138Z,96740.54
2022-12-16T10:34:49.357Z,96755.10
2022-12-16T10:37:55.435Z,96746.72
2022-12-16T10:40:45.396Z,96756.59
2022-12-16T10:43:54.278Z,96760.14
2022-12-16T10:46:46.673Z,96768.05
2022-12-16T10:49:34.363Z,96753.39
2022-12-16T10:52:21.559Z,96746.32
2022-12-16T10:55:33.049Z,96755.11
2022-12-16T10:58:42.850Z,96769.06
2022-12-16T11:01:46.047Z,96757.50
2022-12-16T11:04:51.725Z,96764.55
2022-12-16T11:07:58.811Z,96748.71
2022-12-16T11:10:56.022Z,96747.77
2022-12-16T11:13:36.933Z,96760.86
2022-12-16T11:16:47.334Z,96767.44
2022-12-16T11:19:47.525Z,96768.63
2022-12-16T11:22:39.289Z,96752.09
2022-12-16T11:25:35.660Z,96762.08
2022-12-16T11:28:34.319Z,96767.46
2022-12-16T11:31:28.871Z,96768.96
2022-12-16T11:34:18.537Z,96759.59
2022-12-16T11:37:09.362Z,96755.86
2022-12-16T11:39:56.261Z,96751.78
2022-12-16T11:42:46.461Z,96753.09
2022-12-16T11:45:37.134Z,96755.98
2022-12-16T11:48:52.451Z,96749.13
2022-12-16T11:51:41.184Z,96759.31
2022-12-16T11:54:45.023Z,96758.82
2022-12-16T11:58:03.608Z,96767.92
2022-12-16T12:00:52.053Z,96771.09
2022-12-16T12:03:43.041Z,96787.69
2022-12-16T12:06:52.959Z,96780.23
2022-12-16T12:09:43.472Z,96781.36
2022-12-16T12:12:56.273Z,96772.16
2022-12-16T12:15:57.109Z,96754.85
2022-12-16T12:19:06.813Z,96757.81
2022-12-16T12:22:19.537Z,96768.11
2022-12-16T12:25:20.267Z,96772.56
2022-12-16T12:28:39.605Z,96766.02
2022-12-16T12:31:47.993Z,96769.34
2022-12-16T12:34:42.980Z,96770.25
2022-12-16T12:37:52.546Z,96764.29
2022-12-16T12:40:56.217Z,96749.24
2022-12-16T12:44:07.018Z,96757.45
2022-12-16T12:47:17.326Z,96770.05
2022-12-16T12:50:15.195Z,96786.98
2022-12-16T12:53:51.846Z,96784.80
2022-12-16T12:56:34.067Z,96779.06
2022-12-16T12:59:25.560Z,96786.31
2022-12-16T13:02:14.231Z,96789.47
2022-12-16T13:05:01.650Z,96787.66
2022-12-16T13:07:50.336Z,96790.11
2022-12-16T13:10:47.651Z,96788.30
2022-12-16T13:13:39.253Z,96793.48
2022-12-16T13:16:31.015Z,96786.67
2022-12-16T13:19:51.625Z,96790.91
2022-12-16T13:22:52.868Z,96802.10
2022-12-16T13:26:11.125Z,96797.20
2022-12-16T13:29:00.268Z,96802.07
2022-12-16T13:31:48.686Z,96804.16
2022-12-16T13:34:39.387Z,96799.18
2022-12-16T13:37:39.494Z,96801.27
2022-12-16T13:40:33.953Z,96794.05
2022-12-16T13:43:31.221Z,96787.64
2022-12-16T13:46:25.358Z,96789.40
2022-12-16T13:49:11.485Z,96795.47
2022-12-16T13:52:02.836Z,96793.48
2022-12-16T13:55:09.033Z,96793.08
2022-12-16T13:58:01.605Z,96796.41
2022-12-16T14:00:50.740Z,96797.24
2022-12-16T14:04:02.150Z,96794.36
2022-12-16T14:06:52.873Z,96795.78
2022-12-16T14:10:02.945Z,96805.25
2022-12-16T14:13:16.321Z,96812.92
2022-12-16T14:16:14.557Z,96811.58
2022-12-16T14:19:25.035Z,96822.78
2022-12-16T14:22:33.155Z,96827.01
2022-12-16T14:25:36.970Z,96827.65
2022-12-16T14:28:48.361Z,96822.44
2022-12-16T14:31:52.697Z,96820.56
2022-12-16T14:34:44.100Z,96816.47
2022-12-16T14:37:40.694Z,96818.86
2022-12-16T14:40:39.810Z,96827.69
2022-12-16T14:43:36.943Z,96833.78
2022-12-16T14:46:25.566Z,96841.97
2022-12-16T14:49:11.695Z,96835.38
2022-12-16T14:52:06.028Z,96829.14
2022-12-16T14:54:56.638Z,96830.63
2022-12-16T14:57:45.671Z,96826.99
2022-12-16T15:00:41.587Z,96829.23
2022-12-16T15:03:54.348Z,96832.38
2022-12-16T15:06:50.011Z,96833.98
2022-12-16T15:09:39.153Z,96834.94
2022-12-16T15:12:29.140Z,96831.28
2022-12-16T15:15:16.159Z,96839.52
2022-12-16T15:18:14.713Z,96841.02
2022-12-16T15:21:11.319Z,96853.53
2022-12-16T15:24:01.238Z,96850.44
2022-12-16T15:26:51.237Z,96854.08
2022-12-16T15:30:00.236Z,96868.00
2022-12-16T15:32:53.049Z,96867.55
2022-12-16T15:35:51.390Z,96874.36
2022-12-16T15:38:48.401Z,96876.66
2022-12-16T15:41:51.119Z,96874.70
2022-12-16T15:44:46.154Z,96869.78
2022-12-16T15:47:52.365Z,96862.50
2022-12-16T15:50:42.731Z,96859.97
2022-12-16T15:53:56.652Z,96865.27
2022-12-16T15:56:47.571Z,96866.29
2022-12-16T15:59:47.467Z,96865.11
2022-12-16T16:02:40.716Z,96865.83
2022-12-16T16:05:42.669Z,96869.70
2022-12-16T16:08:29.824Z,96869.87
2022-12-16T16:11:15.459Z,96867.80
2022-12-16T16:14:07.188Z,96867.23
2022-12-16T16:16:48.788Z,96861.07
2022-12-16T16:19:40.261Z,96862.81
2022-12-16T16:22:36.229Z,96862.74
2022-12-16T16:25:24.076Z,96861.47
2022-12-16T16:28:10.016Z,96848.56
2022-12-16T16:30:55.988Z,96855.13
2022-12-16T16:33:42.438Z,96858.53
2022-12-16T16:36:34.161Z,96862.01
2022-12-16T16:39:20.231Z,96860.27
2022-12-16T16:42:06.321Z,96842.22
2022-12-16T16:44:52.564Z,96835.08
2022-12-16T16:47:38.813Z,96837.66
2022-12-16T16:50:26.870Z,96843.16
2022-12-16T16:53:13.337Z,96851.88
2022-12-16T16:55:59.531Z,96851.38
2022-12-16T16:58:48.318Z,96846.17
2022-12-16T17:01:37.059Z,96841.41
2022-12-16T17:04:23.517Z,96844.50
2022-12-16T17:07:09.791Z,96850.62
2022-12-16T17:09:56.401Z,96850.23
2022-12-16T17:12:47.304Z,96846.52
2022-12-16T17:15:50.610Z,96847.93
2022-12-16T17:18:43.822Z,96855.84
2022-12-16T17:21:26.214Z,96854.44
2022-12-16T17:24:12.565Z,96866.62
2022-12-16T17:27:02.108Z,96867.08
2022-12-16T17:29:48.883Z,96873.42
2022-12-16T17:32:35.056Z,96881.36
2022-12-16T17:35:21.660Z,96869.30
2022-12-16T17:38:07.273Z,96869.63
2022-12-16T17:40:53.682Z,96872.39
2022-12-16T17:43:39.842Z,96871.06
2022-12-16T17:46:29.582Z,96867.30
2022-12-16T17:49:17.409Z,96867.69
2022-12-16T17:52:04.682Z,96865.48
2022-12-16T17:54:50.958Z,96875.14
2022-12-16T17:57:37.215Z,96879.41
2022-12-16T18:00:24.781Z,96871.66
2022-12-16T18:03:11.133Z,96886.02
2022-12-16T18:05:57.924Z,96892.27
2022-12-16T18:08:44.722Z,96902.59
2022-12-16T18:11:33.471Z,96906.47
2022-12-16T18:14:18.424Z,96906.54
2022-12-16T18:17:04.789Z,96908.45
2022-12-16T18:19:51.240Z,96909.30
2022-12-16T18:22:37.496Z,96910.19
2022-12-16T18:25:24.965Z,96910.81
2022-12-16T18:28:11.203Z,96901.95
2022-12-16T18:30:57.887Z,96906.55
2022-12-16T18:33:44.283Z,96925.17
2022-12-16T18:36:30.314Z,96926.52
2022-12-16T18:39:16.711Z,96930.16
2022-12-16T18:42:05.543Z,96933.81
2022-12-16T18:44:54.979Z,96941.50
2022-12-16T18:47:39.638Z,96964.69
2022-12-16T18:50:30.537Z,96965.50
2022-12-16T18:53:15.782Z,96961.54
2022-12-16T18:56:01.918Z,96970.02
2022-12-16T18:58:51.980Z,96985.45
2022-12-16T19:01:36.195Z,96991.34
2022-12-16T19:04:22.333Z,96995.31
2022-12-16T19:07:08.072Z,96983.47
2022-12-16T19:09:53.991Z,97008.61
2022-12-16T19:12:40.318Z,97024.00
2022-12-16T19:15:27.503Z,97034.45
2022-12-16T19:18:13.983Z,97039.55
2022-12-16T19:21:00.049Z,97032.81
2022-12-16T19:23:46.275Z,97031.20
2022-12-16T19:26:32.050Z,97027.33
2022-12-16T19:29:18.296Z,97014.47
2022-12-16T19:32:04.486Z,97014.87
2022-12-16T19:34:50.455Z,97017.17
2022-12-16T19:37:36.282Z,97014.08
2022-12-16T19:40:24.737Z,96998.08
2022-12-16T19:43:10.688Z,96995.15
2022-12-16T19:45:57.004Z,96995.38
2022-12-16T19:48:43.061Z,97000.61
2022-12-16T19:51:29.818Z,97016.94
2022-12-16T19:54:16.123Z,97020.82
2022-12-16T19:57:01.902Z,97008.23
2022-12-16T19:59:48.379Z,96992.59
2022-12-16T20:02:34.867Z,97005.28
2022-12-16T20:05:21.494Z,97001.95
2022-12-16T20:08:07.933Z,96983.05
2022-12-16T20:10:56.252Z,96978.50
2022-12-16T20:13:42.567Z,96983.84
2022-12-16T20:16:31.409Z,96999.25
2022-12-16T20:19:17.546Z,97004.10
2022-12-16T20:22:06.827Z,97003.94
2022-12-16T20:24:51.455Z,97002.03
2022-12-16T20:27:38.102Z,96992.59
2022-12-16T20:30:26.913Z,96975.30
2022-12-16T20:33:13.855Z,96965.63
2022-12-16T20:35:59.739Z,96987.83
2022-12-16T20:38:46.321Z,96975.55
2022-12-16T20:41:31.954Z,96971.51
2022-12-16T20:44:17.726Z,96982.94
2022-12-16T20:47:04.211Z,96978.40
2022-12-16T20:49:50.074Z,96952.77
2022-12-16T20:52:36.168Z,96948.17
2022-12-16T20:55:22.745Z,96934.66
2022-12-16T20:58:09.326Z,96932.72
2022-12-16T21:00:56.369Z,96936.20
2022-12-16T21:03:43.081Z,96947.07
2022-12-16T21:06:29.639Z,96946.36
2022-12-16T21:09:16.043Z,96943.06
2022-12-16T21:12:01.737Z,96938.83
2022-12-16T21:14:47.493Z,96936.66
2022-12-16T21:17:33.564Z,96904.42
2022-12-16T21:20:19.235Z,96900.27
2022-12-16T21:23:05.073Z,96907.27
2022-12-16T21:25:51.240Z,96937.17
2022-12-16T21:28:37.372Z,96987.66
2022-12-16T21:31:23.750Z,97004.72
2022-12-16T21:34:11.576Z,97022.83
2022-12-16T21:36:57.707Z,97030.69
2022-12-16T21:39:45.264Z,97023.39
2022-12-16T21:42:35.386Z,97016.00
2022-12-16T21:45:19.089Z,97007.42
2022-12-16T21:48:05.042Z,97006.78
2022-12-16T21:50:51.824Z,97000.08
2022-12-16T21:53:37.980Z,96978.14
2022-12-16T21:56:26.805Z,96972.84
2022-12-16T21:59:12.764Z,96968.98
2022-12-16T22:01:59.394Z,96967.91
2022-12-16T22:04:45.238Z,96977.96
2022-12-16T22:07:31.132Z,96972.81
2022-12-16T22:10:17.284Z,96976.38
2022-12-16T22:13:03.208Z,96985.55
2022-12-16T22:15:49.034Z,96991.11
2022-12-16T22:18:36.795Z,97012.12
2022-12-16T22:21:24.495Z,97013.13
2022-12-16T22:24:10.644Z,97024.10
2022-12-16T22:26:56.465Z,97029.02
2022-12-16T22:29:42.939Z,97033.47
2022-12-16T22:32:29.271Z,97029.19
2022-12-16T22:35:15.616Z,97001.03
2022-12-16T22:38:02.141Z,97006.89
2022-12-16T22:40:47.931Z,97012.77
2022-12-16T22:43:33.905Z,96997.27
2022-12-16T22:46:22.247Z,96995.98
2022-12-16T22:49:08.276Z,96991.20
2022-12-16T22:51:54.434Z,96985.08
2022-12-16T22:54:42.019Z,96972.27
2022-12-16T22:57:27.688Z,96966.94
2022-12-16T23:00:14.329Z,96977.77
2022-12-16T23:03:00.955Z,96985.56
2022-12-16T23:05:47.302Z,96967.22
2022-12-16T23:08:33.647Z,96941.58
2022-12-16T23:11:19.831Z,96911.88
2022-12-16T23:14:06.026Z,96919.97
2022-12-16T23:16:52.235Z,96933.83
2022-12-16T23:19:39.332Z,96935.30
2022-12-16T23:22:25.083Z,96933.77
2022-12-16T23:24:57.432Z,96921.59
2022-12-16T23:27:43.908Z,96916.34
2022-12-16T23:30:30.640Z,96913.50
2022-12-16T23:33:19.772Z,96916.16
2022-12-16T23:36:06.156Z,96938.19
2022-12-16T23:38:52.251Z,96942.75
2022-12-16T23:41:39.598Z,96935.75
2022-12-16T23:44:26.174Z,96933.05
2022-12-16T23:47:12.173Z,96935.60
2022-12-16T23:49:58.249Z,96926.20
2022-12-16T23:52:44.526Z,96914.84
2022-12-16T23:55:30.465Z,96919.90
2022-12-16T23:58:22.457Z,96918.17
